METAR & TAF

RJTO 210600Z 24004KT 180V320 9999 FEW030 SCT045 12/02 Q1014
RJTO 210500Z VRB03KT 9999 FEW030 SCT045 11/02 Q1014
RJTO 210400Z 04007KT 9999 FEW030 BKN/// 11/02 Q1014
RJTO 210300Z 04008KT 360V100 9999 FEW030 BKN/// 11/01 Q1015
RJTO 210200Z 03013KT 9999 FEW025 SCT/// 11/01 Q1016
No TAF found for RJTO